createdAt,value
2018-10-03T06:22:53.991Z,99.90
2018-10-03T06:25:22.236Z,99.90
2018-10-03T06:27:50.479Z,99.90
2018-10-03T06:30:18.812Z,99.90
2018-10-03T06:32:47.043Z,99.90
2018-10-03T11:42:06.735Z,99.90
2018-10-03T11:44:34.981Z,65.00
2018-10-03T11:47:03.231Z,64.40
2018-10-03T11:49:31.404Z,63.00
2018-10-03T11:52:00.009Z,63.90
2018-10-03T11:54:28.226Z,63.90
2018-10-03T11:56:56.469Z,65.10
2018-10-03T11:59:24.700Z,65.50
2018-10-03T12:01:53.093Z,65.80
2018-10-03T12:04:21.336Z,65.40
2018-10-03T12:06:49.604Z,66.00
2018-10-03T12:09:17.821Z,65.30
2018-10-03T12:11:46.530Z,66.30
2018-10-03T12:14:15.498Z,66.60
2018-10-03T12:16:44.044Z,67.70
2018-10-03T12:19:12.245Z,68.50
2018-10-03T12:21:40.455Z,67.70
2018-10-03T12:24:08.638Z,66.70
2018-10-03T12:26:36.850Z,66.40
2018-10-03T12:29:05.561Z,67.70
2018-10-03T12:31:34.414Z,68.90
2018-10-03T12:34:03.117Z,68.60
2018-10-03T12:36:31.321Z,69.20
2018-10-03T12:38:59.642Z,69.80
2018-10-03T12:41:27.851Z,69.80
2018-10-03T12:43:56.071Z,68.20
2018-10-03T12:46:24.277Z,68.00
2018-10-03T12:48:52.463Z,64.90
2018-10-03T12:51:20.711Z,65.40
2018-10-03T12:53:49.502Z,65.30
2018-10-03T12:56:17.673Z,63.90
2018-10-03T12:58:45.867Z,62.90
2018-10-03T13:01:14.098Z,62.20
2018-10-03T13:03:42.224Z,62.00
2018-10-03T13:06:10.407Z,61.50
2018-10-03T13:08:38.606Z,61.40
2018-10-03T13:11:06.776Z,63.10
2018-10-03T13:13:35.105Z,64.60
2018-10-03T13:16:03.296Z,66.00
2018-10-03T13:18:31.504Z,67.10
2018-10-03T13:20:59.676Z,67.40
2018-10-03T13:23:28.106Z,67.80
2018-10-03T13:25:56.579Z,68.20
2018-10-03T13:28:24.794Z,68.10
2018-10-03T13:30:53.128Z,66.90
2018-10-03T13:33:21.312Z,67.00
2018-10-03T13:35:49.732Z,67.40
2018-10-03T13:38:17.945Z,67.20
2018-10-03T13:40:46.779Z,67.40
2018-10-03T13:43:14.924Z,68.40
2018-10-03T13:45:43.135Z,65.40
2018-10-03T13:48:11.622Z,67.70
2018-10-03T13:50:39.809Z,65.00
2018-10-03T13:53:08.226Z,63.30
2018-10-03T13:55:36.405Z,62.20
2018-10-03T13:58:04.623Z,59.90
2018-10-03T14:00:32.836Z,59.60
2018-10-03T14:03:01.107Z,59.10
2018-10-03T14:05:29.824Z,60.80
2018-10-03T14:07:58.007Z,61.30
2018-10-03T14:10:26.194Z,61.60
2018-10-03T14:12:54.370Z,61.50
2018-10-03T14:15:22.624Z,61.90
2018-10-03T14:17:51.026Z,60.30
2018-10-03T14:20:19.261Z,62.10
2018-10-03T14:22:47.445Z,62.40
2018-10-03T14:25:15.808Z,62.70
2018-10-03T14:27:43.984Z,64.00
2018-10-03T14:30:12.673Z,65.20
2018-10-03T14:32:41.061Z,65.90
2018-10-03T14:35:09.271Z,67.00
2018-10-03T14:37:37.535Z,67.80
2018-10-03T14:40:05.728Z,69.30
2018-10-03T14:42:33.916Z,70.20
2018-10-03T14:45:02.172Z,70.50
2018-10-03T14:47:30.389Z,71.40
2018-10-03T14:49:58.659Z,71.10
2018-10-03T14:52:27.004Z,71.60
2018-10-03T14:54:55.411Z,72.00
2018-10-03T14:57:24.095Z,72.80
2018-10-03T14:59:52.373Z,73.50
2018-10-03T15:02:20.724Z,74.10
2018-10-03T15:04:48.973Z,73.80
2018-10-03T15:07:17.156Z,74.40
2018-10-03T15:09:45.357Z,74.30
2018-10-03T15:12:13.513Z,74.20
2018-10-03T15:14:41.737Z,73.70
2018-10-03T15:17:10.000Z,73.80
2018-10-03T15:19:38.267Z,73.40
2018-10-03T15:22:06.489Z,73.90
2018-10-03T15:24:34.682Z,74.70
2018-10-03T15:27:02.884Z,75.20
2018-10-03T15:29:31.051Z,75.90
2018-10-03T15:31:59.271Z,77.60
2018-10-03T15:34:27.537Z,77.60
2018-10-03T15:36:55.691Z,78.40
2018-10-03T15:39:23.891Z,80.10
2018-10-03T15:41:52.094Z,81.30
2018-10-03T15:44:20.243Z,81.40
2018-10-03T15:46:48.490Z,82.20
2018-10-03T15:49:17.886Z,83.10
2018-10-03T15:51:46.152Z,83.80
2018-10-03T15:54:14.473Z,85.20
2018-10-03T15:56:43.023Z,86.20
2018-10-03T15:59:11.322Z,87.50
2018-10-03T16:01:39.890Z,88.30
2018-10-03T16:04:08.603Z,89.40
2018-10-03T16:06:36.985Z,90.20
2018-10-03T16:09:06.577Z,90.80
2018-10-03T16:11:34.983Z,91.40
2018-10-03T16:14:04.100Z,91.60
2018-10-03T16:16:32.484Z,92.20
2018-10-03T16:19:00.680Z,92.70
2018-10-03T16:21:28.853Z,93.20
2018-10-03T16:23:57.124Z,93.60
2018-10-03T16:26:25.634Z,94.00
2018-10-03T16:28:53.744Z,94.40
2018-10-03T16:31:22.210Z,94.60
2018-10-03T16:33:50.390Z,95.20
2018-10-03T16:36:18.846Z,96.00
2018-10-03T16:38:47.171Z,96.90
2018-10-03T16:41:15.465Z,97.50
2018-10-03T16:43:43.703Z,97.80
2018-10-03T16:46:12.519Z,98.00
2018-10-03T16:48:40.798Z,98.40
2018-10-03T16:51:09.091Z,98.70
2018-10-03T16:53:37.610Z,99.20
2018-10-03T16:56:07.783Z,99.60
2018-10-03T16:58:36.020Z,99.80
2018-10-03T17:01:04.200Z,99.90
2018-10-03T17:03:32.558Z,99.90
2018-10-03T17:06:00.733Z,99.90
2018-10-03T17:08:29.190Z,99.90
2018-10-03T17:10:57.371Z,99.90
2018-10-03T17:13:27.692Z,99.90
2018-10-03T17:15:55.951Z,99.90
2018-10-03T17:18:24.165Z,99.90
2018-10-03T17:20:52.682Z,99.90
2018-10-03T17:23:20.914Z,99.90
2018-10-03T17:25:49.205Z,99.90
2018-10-03T17:28:17.472Z,99.90
2018-10-03T17:30:45.743Z,99.90
2018-10-03T17:33:14.123Z,99.90
2018-10-03T17:35:42.395Z,99.90
2018-10-03T17:38:10.570Z,99.90
2018-10-03T17:40:45.314Z,99.90
2018-10-03T17:43:13.517Z,99.90
2018-10-03T17:45:41.698Z,99.90
2018-10-03T17:48:09.895Z,99.90
2018-10-03T17:50:38.075Z,99.90
2018-10-03T17:53:06.286Z,99.90
2018-10-03T17:55:35.276Z,99.90
2018-10-03T17:58:04.023Z,99.90
2018-10-03T18:00:32.216Z,99.90
2018-10-03T18:03:00.396Z,99.90
2018-10-03T18:05:28.574Z,99.90
2018-10-03T18:07:56.829Z,99.90
2018-10-03T18:10:28.227Z,99.90
2018-10-03T18:12:56.428Z,99.90
2018-10-03T18:15:24.593Z,99.90
2018-10-03T18:17:52.745Z,99.90
2018-10-03T18:20:20.911Z,99.90
2018-10-03T18:22:49.084Z,99.90
2018-10-03T18:25:17.849Z,99.90
2018-10-03T18:27:46.060Z,99.90
2018-10-03T18:30:14.253Z,99.90
2018-10-03T18:32:42.511Z,99.90
2018-10-03T18:35:11.116Z,99.90
2018-10-03T18:37:39.258Z,99.90
2018-10-03T18:40:07.408Z,99.90
2018-10-03T18:42:36.028Z,99.90
2018-10-03T18:45:04.203Z,99.90
2018-10-03T18:47:32.391Z,99.90
2018-10-03T18:50:00.602Z,99.90
2018-10-03T18:52:28.870Z,99.90
2018-10-03T18:54:57.110Z,99.90
2018-10-03T18:57:25.396Z,99.90
2018-10-03T18:59:53.581Z,99.90
2018-10-03T19:02:21.749Z,99.90
2018-10-03T19:04:49.963Z,99.90
2018-10-03T19:07:18.129Z,99.90
2018-10-03T19:09:46.406Z,99.90
2018-10-03T19:12:14.733Z,99.90
2018-10-03T19:14:42.923Z,99.90
2018-10-03T19:17:11.262Z,99.90
2018-10-03T19:19:39.632Z,99.90
2018-10-03T19:22:08.384Z,99.90
2018-10-03T19:24:37.257Z,99.90
2018-10-03T19:27:05.432Z,99.90
2018-10-03T19:29:33.868Z,99.90
2018-10-03T19:32:02.145Z,99.90
2018-10-03T19:34:30.587Z,99.90
2018-10-03T19:36:58.848Z,99.90
2018-10-03T19:39:27.043Z,99.90
2018-10-03T19:41:55.786Z,99.90
2018-10-03T19:44:37.529Z,99.90
2018-10-03T19:47:05.758Z,99.90
2018-10-03T19:49:34.229Z,99.90
2018-10-03T19:52:02.415Z,99.90
2018-10-03T19:54:30.597Z,99.90
2018-10-03T19:56:58.958Z,99.90
2018-10-03T19:59:27.135Z,99.90
2018-10-03T20:01:55.314Z,99.90
2018-10-03T20:04:23.518Z,99.90
2018-10-03T20:06:51.730Z,99.90
2018-10-03T20:09:20.258Z,99.90
2018-10-03T20:11:48.595Z,99.90
2018-10-03T20:14:16.857Z,99.90
2018-10-03T20:16:45.567Z,99.90
2018-10-03T20:19:13.812Z,99.90
2018-10-03T20:21:42.092Z,99.90
2018-10-03T20:24:10.308Z,99.90
2018-10-03T20:26:38.561Z,99.90
2018-10-03T20:29:06.701Z,99.90
2018-10-03T20:31:34.919Z,99.90
2018-10-03T20:34:03.120Z,99.90
2018-10-03T20:36:31.282Z,99.90
2018-10-03T20:38:59.559Z,99.90
2018-10-03T20:41:27.732Z,99.90
2018-10-03T20:43:55.960Z,99.90
2018-10-03T20:46:24.279Z,99.90
2018-10-03T20:48:52.455Z,99.90
2018-10-03T20:51:20.747Z,99.90
2018-10-03T20:53:48.931Z,99.90
2018-10-03T20:56:17.174Z,99.90
2018-10-03T20:58:45.370Z,99.90
2018-10-03T21:01:13.567Z,99.90
2018-10-03T21:03:41.754Z,99.90
2018-10-03T21:06:09.962Z,99.90
2018-10-03T21:08:38.363Z,99.90
2018-10-03T21:11:06.588Z,99.90
2018-10-03T21:13:34.853Z,99.90
2018-10-03T21:16:03.107Z,99.90
2018-10-03T21:18:31.352Z,99.90
2018-10-03T21:20:59.541Z,99.90
2018-10-03T21:23:28.194Z,99.90
2018-10-03T21:25:56.395Z,99.90
2018-10-03T21:28:24.565Z,99.90
2018-10-03T21:30:52.802Z,99.90
2018-10-03T21:33:20.921Z,99.90
2018-10-03T21:35:49.073Z,99.90
2018-10-03T21:38:17.382Z,99.90
2018-10-03T21:40:45.545Z,99.90
2018-10-03T21:43:13.685Z,99.90
2018-10-03T21:45:41.839Z,99.90
2018-10-03T21:48:09.988Z,99.90
2018-10-03T21:50:38.167Z,99.90
2018-10-03T21:53:08.422Z,99.90
2018-10-03T21:55:36.548Z,99.90
2018-10-03T21:58:04.702Z,99.90
2018-10-03T22:00:38.246Z,99.90
2018-10-03T22:05:39.997Z,99.90
2018-10-03T22:08:08.181Z,99.90
2018-10-03T22:10:36.377Z,99.90
2018-10-03T22:13:04.550Z,99.90
2018-10-03T22:15:32.707Z,99.90
2018-10-03T22:18:00.850Z,99.90
2018-10-03T22:20:29.009Z,99.90
2018-10-03T22:22:57.261Z,99.90
2018-10-03T22:25:25.360Z,99.90
2018-10-03T22:27:53.501Z,99.90
2018-10-03T22:30:25.243Z,99.90
2018-10-03T22:32:53.407Z,99.90
2018-10-03T22:35:21.537Z,99.90
2018-10-03T22:37:49.685Z,99.90
2018-10-03T22:40:17.812Z,99.90
2018-10-03T22:42:46.085Z,99.90
2018-10-03T22:45:14.228Z,99.90
2018-10-03T22:47:42.389Z,99.90
2018-10-03T22:50:10.532Z,99.90
2018-10-03T22:52:38.734Z,99.90
2018-10-03T22:55:06.979Z,99.90
2018-10-03T22:57:35.089Z,99.90
2018-10-03T23:00:03.417Z,99.90
2018-10-03T23:02:31.545Z,99.90
2018-10-03T23:04:59.710Z,99.90
2018-10-03T23:07:27.833Z,99.90
2018-10-03T23:09:55.994Z,99.90
2018-10-03T23:12:24.137Z,99.90
2018-10-03T23:14:52.341Z,99.90
2018-10-03T23:17:20.542Z,99.90
2018-10-03T23:19:48.677Z,99.90
2018-10-03T23:22:16.806Z,99.90
2018-10-03T23:24:45.025Z,99.90
2018-10-03T23:27:13.181Z,99.90
2018-10-03T23:29:41.313Z,99.90
2018-10-03T23:32:09.464Z,99.90
2018-10-03T23:34:37.618Z,99.90
2018-10-03T23:37:05.892Z,99.90
2018-10-03T23:39:34.070Z,99.90
2018-10-03T23:42:02.267Z,99.90
2018-10-03T23:44:30.361Z,99.90
2018-10-03T23:46:58.513Z,99.90
2018-10-03T23:49:26.658Z,99.90
2018-10-03T23:51:54.822Z,99.90
2018-10-03T23:54:22.964Z,99.90
2018-10-03T23:56:51.096Z,99.90
2018-10-03T23:59:19.289Z,99.90
